createdAt,value
2022-10-29T00:01:48.044Z,14.40
2022-10-29T00:04:17.130Z,14.40
2022-10-29T00:06:44.847Z,14.40
2022-10-29T00:09:12.711Z,14.30
2022-10-29T00:11:40.384Z,14.30
2022-10-29T00:14:08.081Z,14.30
2022-10-29T00:16:38.266Z,14.30
2022-10-29T00:19:06.585Z,14.30
2022-10-29T00:21:35.630Z,14.30
2022-10-29T00:24:03.307Z,14.30
2022-10-29T00:26:31.428Z,14.30
2022-10-29T00:28:59.164Z,14.30
2022-10-29T00:31:27.208Z,14.30
2022-10-29T00:33:56.105Z,14.30
2022-10-29T00:36:26.155Z,14.30
2022-10-29T00:38:56.926Z,14.20
2022-10-29T00:41:26.899Z,14.20
2022-10-29T00:44:25.602Z,14.20
2022-10-29T00:46:57.439Z,14.20
2022-10-29T00:49:26.249Z,14.20
2022-10-29T00:51:54.474Z,14.20
2022-10-29T00:54:23.586Z,14.20
2022-10-29T00:56:57.955Z,14.20
2022-10-29T00:59:26.179Z,14.20
2022-10-29T01:01:55.892Z,14.30
2022-10-29T01:04:25.339Z,14.20
2022-10-29T01:06:53.708Z,14.20
2022-10-29T01:09:22.746Z,14.20
2022-10-29T01:12:03.333Z,14.20
2022-10-29T01:14:41.853Z,14.20
2022-10-29T01:17:23.385Z,14.20
2022-10-29T01:20:23.967Z,14.20
2022-10-29T01:23:05.454Z,14.20
2022-10-29T01:26:02.874Z,14.20
2022-10-29T01:28:42.649Z,14.20
2022-10-29T01:31:32.472Z,14.10
2022-10-29T01:34:08.032Z,14.10
2022-10-29T01:36:45.888Z,14.10
2022-10-29T01:39:21.837Z,14.00
2022-10-29T01:41:54.871Z,14.10
2022-10-29T01:44:32.020Z,14.10
2022-10-29T01:47:02.947Z,14.00
2022-10-29T01:49:36.417Z,14.00
2022-10-29T01:52:07.949Z,14.10
2022-10-29T01:54:35.731Z,14.10
2022-10-29T01:57:03.487Z,14.10
2022-10-29T01:59:54.920Z,14.10
2022-10-29T02:02:29.160Z,14.10
2022-10-29T02:05:07.723Z,14.10
2022-10-29T02:07:46.732Z,14.10
2022-10-29T02:10:21.399Z,14.10
2022-10-29T02:12:51.949Z,14.10
2022-10-29T02:15:24.298Z,14.10
2022-10-29T02:17:54.019Z,14.10
2022-10-29T02:20:22.030Z,14.10
2022-10-29T02:22:49.776Z,14.00
2022-10-29T02:25:18.065Z,14.00
2022-10-29T02:27:45.798Z,13.90
2022-10-29T02:30:13.648Z,13.90
2022-10-29T02:32:41.375Z,13.90
2022-10-29T02:35:10.997Z,13.90
2022-10-29T02:37:38.916Z,13.90
2022-10-29T02:40:07.676Z,13.90
2022-10-29T02:42:35.392Z,13.90
2022-10-29T02:45:03.207Z,13.90
2022-10-29T02:47:30.915Z,13.90
2022-10-29T02:49:58.621Z,13.80
2022-10-29T02:52:27.680Z,13.80
2022-10-29T02:54:55.386Z,13.80
2022-10-29T02:57:23.141Z,13.80
2022-10-29T02:59:50.855Z,13.80
2022-10-29T03:02:18.684Z,13.80
2022-10-29T03:04:46.490Z,13.80
2022-10-29T03:07:14.183Z,13.80
2022-10-29T03:09:43.240Z,13.80
2022-10-29T03:12:10.937Z,13.80
2022-10-29T03:14:38.628Z,13.70
2022-10-29T03:17:06.420Z,13.70
2022-10-29T03:19:34.090Z,13.70
2022-10-29T03:22:01.821Z,13.70
2022-10-29T03:24:29.552Z,13.70
2022-10-29T03:26:58.572Z,13.70
2022-10-29T03:29:26.284Z,13.60
2022-10-29T03:31:53.980Z,13.60
2022-10-29T03:34:21.688Z,13.60
2022-10-29T03:36:49.391Z,13.60
2022-10-29T03:39:17.132Z,13.50
2022-10-29T03:41:44.921Z,13.50
2022-10-29T03:44:13.975Z,13.50
2022-10-29T03:46:41.692Z,13.50
2022-10-29T03:49:09.361Z,13.50
2022-10-29T03:51:37.075Z,13.50
2022-10-29T03:54:05.030Z,13.40
2022-10-29T03:56:32.745Z,13.40
2022-10-29T03:59:00.486Z,13.40
2022-10-29T04:01:29.639Z,13.40
2022-10-29T04:03:57.444Z,13.30
2022-10-29T04:06:25.128Z,13.30
2022-10-29T04:08:53.388Z,13.30
2022-10-29T04:11:22.340Z,13.30
2022-10-29T04:13:53.643Z,13.30
2022-10-29T04:16:21.400Z,13.30
2022-10-29T04:18:50.922Z,13.30
2022-10-29T04:29:42.880Z,13.30
2022-10-29T04:32:10.610Z,13.30
2022-10-29T04:34:39.650Z,13.30
2022-10-29T04:37:07.824Z,13.30
2022-10-29T04:39:35.569Z,13.30
2022-10-29T04:42:03.245Z,13.30
2022-10-29T04:44:30.945Z,13.30
2022-10-29T04:46:58.643Z,13.30
2022-10-29T04:49:26.370Z,13.30
2022-10-29T04:51:55.487Z,13.30
2022-10-29T04:54:23.190Z,13.30
2022-10-29T04:56:50.895Z,13.30
2022-10-29T04:59:18.597Z,13.30
2022-10-29T05:01:46.360Z,13.30
2022-10-29T05:04:14.633Z,13.20
2022-10-29T05:06:42.347Z,13.20
2022-10-29T05:09:11.392Z,13.20
2022-10-29T05:11:39.089Z,13.20
2022-10-29T05:14:06.916Z,13.30
2022-10-29T05:16:34.591Z,13.30
2022-10-29T05:19:02.727Z,13.30
2022-10-29T05:21:30.512Z,13.30
2022-10-29T05:23:58.520Z,13.40
2022-10-29T05:26:27.523Z,13.40
2022-10-29T05:28:55.221Z,13.40
2022-10-29T05:31:22.916Z,13.40
2022-10-29T05:33:52.531Z,13.40
2022-10-29T05:36:23.292Z,13.30
2022-10-29T05:38:50.996Z,13.30
2022-10-29T05:41:18.681Z,13.30
2022-10-29T05:43:51.094Z,13.30
2022-10-29T05:46:18.831Z,13.30
2022-10-29T05:48:46.538Z,13.40
2022-10-29T05:51:14.239Z,13.40
2022-10-29T05:53:41.922Z,13.40
2022-10-29T05:56:09.642Z,13.40
2022-10-29T05:58:37.403Z,13.40
2022-10-29T06:01:09.272Z,13.40
2022-10-29T06:03:38.662Z,13.40
2022-10-29T06:06:06.754Z,13.40
2022-10-29T06:08:34.528Z,13.50
2022-10-29T06:11:03.316Z,13.50
2022-10-29T06:13:31.051Z,13.50
2022-10-29T06:16:00.501Z,13.50
2022-10-29T06:18:29.941Z,13.50
2022-10-29T06:21:00.304Z,13.50
2022-10-29T06:27:08.632Z,13.50
2022-10-29T06:29:36.346Z,13.50
2022-10-29T06:32:04.966Z,13.50
2022-10-29T06:34:33.986Z,13.50
2022-10-29T06:37:01.775Z,13.60
2022-10-29T06:39:29.493Z,13.60
2022-10-29T06:41:57.233Z,13.60
2022-10-29T06:44:24.951Z,13.60
2022-10-29T06:46:52.640Z,13.70
2022-10-29T06:49:20.905Z,13.70
2022-10-29T06:51:50.081Z,13.70
2022-10-29T06:54:17.772Z,13.70
2022-10-29T06:56:45.523Z,13.80
2022-10-29T06:59:13.247Z,13.80
2022-10-29T07:01:40.959Z,13.80
2022-10-29T07:04:08.724Z,13.90
2022-10-29T07:06:36.412Z,13.90
2022-10-29T07:09:05.484Z,13.90
2022-10-29T07:11:33.192Z,14.00
2022-10-29T07:14:01.624Z,14.00
2022-10-29T07:16:29.329Z,14.00
2022-10-29T07:18:57.634Z,14.10
2022-10-29T07:21:25.428Z,14.10
2022-10-29T07:23:53.175Z,14.10
2022-10-29T07:26:22.232Z,14.10
2022-10-29T07:28:49.923Z,14.20
2022-10-29T07:31:17.644Z,14.20
2022-10-29T07:33:45.339Z,14.20
2022-10-29T07:36:13.047Z,14.20
2022-10-29T07:38:40.783Z,14.20
2022-10-29T07:41:08.480Z,14.30
2022-10-29T07:43:37.543Z,14.30
2022-10-29T07:46:05.293Z,14.30
2022-10-29T07:48:33.412Z,14.30
2022-10-29T07:51:01.404Z,14.30
2022-10-29T07:53:31.161Z,14.30
2022-10-29T07:55:59.888Z,14.40
2022-10-29T07:58:27.914Z,14.40
2022-10-29T08:01:00.109Z,14.40
2022-10-29T08:03:27.983Z,14.40
2022-10-29T08:05:57.940Z,14.50
2022-10-29T08:08:25.949Z,14.50
2022-10-29T08:10:53.676Z,14.60
2022-10-29T08:13:21.372Z,14.60
2022-10-29T08:15:49.062Z,14.70
2022-10-29T08:18:19.152Z,14.80
2022-10-29T08:20:47.225Z,14.80
2022-10-29T08:23:15.326Z,14.90
2022-10-29T08:25:43.139Z,15.00
2022-10-29T08:28:12.899Z,15.00
2022-10-29T08:30:41.064Z,15.10
2022-10-29T08:33:10.670Z,15.10
2022-10-29T08:35:39.818Z,15.20
2022-10-29T08:38:07.732Z,15.20
2022-10-29T08:40:45.554Z,15.30
2022-10-29T08:43:47.007Z,15.30
2022-10-29T08:46:20.275Z,15.40
2022-10-29T08:48:54.583Z,15.40
2022-10-29T08:51:26.741Z,15.40
2022-10-29T08:56:49.762Z,15.50
2022-10-29T08:59:19.203Z,15.60
2022-10-29T09:01:47.049Z,15.70
2022-10-29T09:04:25.681Z,15.70
2022-10-29T09:07:15.480Z,15.70
2022-10-29T09:09:47.779Z,15.80
2022-10-29T09:12:32.526Z,15.80
2022-10-29T09:15:24.030Z,15.90
2022-10-29T09:18:01.661Z,16.00
2022-10-29T09:20:41.920Z,16.10
2022-10-29T09:23:19.144Z,16.10
2022-10-29T09:25:53.283Z,16.20
2022-10-29T09:28:33.662Z,16.20
2022-10-29T09:31:07.988Z,16.20
2022-10-29T09:33:36.009Z,16.20
2022-10-29T09:36:12.321Z,16.20
2022-10-29T09:38:46.947Z,16.20
2022-10-29T09:41:14.845Z,16.30
2022-10-29T09:43:49.197Z,16.40
2022-10-29T09:46:23.206Z,16.50
2022-10-29T09:48:58.350Z,16.60
2022-10-29T09:51:34.609Z,16.80
2022-10-29T09:54:05.421Z,16.90
2022-10-29T09:56:33.296Z,17.10
2022-10-29T09:59:19.557Z,17.20
2022-10-29T10:01:48.884Z,17.30
2022-10-29T10:04:24.209Z,17.30
2022-10-29T10:07:07.526Z,17.40
2022-10-29T10:09:54.635Z,17.50
2022-10-29T10:12:24.800Z,17.50
2022-10-29T10:15:07.651Z,17.60
2022-10-29T10:17:55.639Z,17.60
2022-10-29T10:20:35.825Z,17.60
2022-10-29T10:23:20.279Z,17.60
2022-10-29T10:25:50.147Z,17.70
2022-10-29T10:28:20.594Z,17.70
2022-10-29T10:31:08.226Z,17.80
2022-10-29T10:33:38.160Z,17.90
2022-10-29T10:36:08.117Z,17.90
2022-10-29T10:38:41.031Z,18.00
2022-10-29T10:41:12.459Z,18.00
2022-10-29T10:43:44.272Z,18.10
2022-10-29T10:46:17.269Z,18.10
2022-10-29T10:48:45.065Z,18.20
2022-10-29T10:51:23.113Z,18.20
2022-10-29T10:53:52.144Z,18.20
2022-10-29T10:56:23.163Z,18.30
2022-10-29T10:58:56.684Z,18.30
2022-10-29T11:01:30.666Z,18.30
2022-10-29T11:04:04.752Z,18.30
2022-10-29T11:06:36.516Z,18.30
2022-10-29T11:09:12.737Z,18.40
2022-10-29T11:11:46.315Z,18.40
2022-10-29T11:14:24.457Z,18.40
2022-10-29T11:16:55.608Z,18.40
2022-10-29T11:19:31.353Z,18.50
2022-10-29T11:22:22.486Z,18.50
2022-10-29T11:24:56.865Z,18.50
2022-10-29T11:27:34.684Z,18.50
2022-10-29T11:30:07.681Z,18.50
2022-10-29T11:32:51.577Z,18.60
2022-10-29T11:35:24.983Z,18.60
2022-10-29T11:38:00.143Z,18.60
2022-10-29T11:40:37.558Z,18.60
2022-10-29T11:43:11.693Z,18.70
2022-10-29T11:45:51.097Z,18.70
2022-10-29T11:48:29.206Z,18.70
2022-10-29T11:51:05.727Z,18.80
2022-10-29T11:53:57.243Z,18.80
2022-10-29T11:56:36.432Z,18.80
2022-10-29T11:59:10.020Z,18.90
2022-10-29T12:01:45.922Z,18.90
2022-10-29T12:04:27.533Z,18.90
2022-10-29T12:07:13.236Z,18.90
2022-10-29T12:09:58.055Z,18.90
2022-10-29T12:12:31.930Z,18.90
2022-10-29T12:15:10.067Z,19.00
2022-10-29T12:17:46.190Z,19.00
2022-10-29T12:20:24.994Z,19.10
2022-10-29T12:23:04.363Z,19.20
2022-10-29T12:25:40.335Z,19.20
2022-10-29T12:28:19.988Z,19.30
2022-10-29T12:31:04.400Z,19.30
2022-10-29T12:33:39.718Z,19.40
2022-10-29T12:36:15.075Z,19.40
2022-10-29T12:38:44.339Z,19.50
2022-10-29T12:41:18.684Z,19.50
2022-10-29T12:43:47.044Z,19.60
2022-10-29T12:46:25.485Z,19.70
2022-10-29T12:49:02.308Z,19.70
2022-10-29T12:51:36.335Z,19.80
2022-10-29T12:54:17.412Z,19.80
2022-10-29T12:56:49.364Z,19.90
2022-10-29T12:59:37.480Z,19.90
2022-10-29T13:02:26.581Z,19.90
2022-10-29T13:05:17.359Z,20.00
2022-10-29T13:08:11.975Z,20.00
2022-10-29T13:10:51.042Z,20.00
2022-10-29T13:13:41.834Z,20.10
2022-10-29T13:16:16.444Z,20.20
2022-10-29T13:19:06.433Z,20.30
2022-10-29T13:22:00.725Z,20.30
2022-10-29T13:24:30.223Z,20.30
2022-10-29T13:27:03.296Z,20.20
2022-10-29T13:29:48.270Z,20.20
2022-10-29T13:32:35.589Z,20.20
2022-10-29T13:35:06.718Z,20.10
2022-10-29T13:37:50.786Z,20.10
2022-10-29T13:41:01.488Z,20.00
2022-10-29T13:43:30.347Z,20.00
2022-10-29T13:46:18.777Z,19.90
2022-10-29T13:48:48.167Z,19.90
2022-10-29T13:51:24.032Z,19.90
2022-10-29T13:53:57.804Z,19.80
2022-10-29T13:56:34.178Z,19.80
2022-10-29T13:59:05.471Z,19.80
2022-10-29T14:01:34.567Z,19.80
2022-10-29T14:04:06.350Z,19.80
2022-10-29T14:06:40.225Z,19.80
2022-10-29T14:09:20.966Z,19.80
2022-10-29T14:11:56.561Z,19.80
2022-10-29T14:14:29.521Z,19.80
2022-10-29T14:17:14.485Z,19.80
2022-10-29T14:19:49.950Z,19.80
2022-10-29T14:22:33.189Z,19.80
2022-10-29T14:25:02.771Z,19.70
2022-10-29T14:27:30.709Z,19.70
2022-10-29T14:30:15.123Z,19.70
2022-10-29T14:32:45.262Z,19.70
2022-10-29T14:35:17.020Z,19.70
2022-10-29T14:37:49.520Z,19.70
2022-10-29T14:40:21.017Z,19.70
2022-10-29T14:42:53.720Z,19.70
2022-10-29T14:45:25.203Z,19.60
2022-10-29T14:47:55.315Z,19.60
2022-10-29T14:50:24.860Z,19.60
2022-10-29T14:52:56.477Z,19.60
2022-10-29T14:55:28.024Z,19.60
2022-10-29T14:58:04.064Z,19.50
2022-10-29T15:00:35.714Z,19.50
2022-10-29T15:03:04.736Z,19.50
2022-10-29T15:05:34.843Z,19.50
2022-10-29T15:08:18.900Z,19.40
2022-10-29T15:10:49.217Z,19.40
2022-10-29T15:13:25.296Z,19.40
2022-10-29T15:15:56.005Z,19.40
2022-10-29T15:18:25.420Z,19.30
2022-10-29T15:20:55.412Z,19.40
2022-10-29T15:23:28.028Z,19.40
2022-10-29T15:26:01.221Z,19.30
2022-10-29T15:28:31.323Z,19.30
2022-10-29T15:31:03.112Z,19.30
2022-10-29T15:33:32.400Z,19.20
2022-10-29T15:36:02.684Z,19.20
2022-10-29T15:39:19.720Z,19.10
2022-10-29T15:41:50.214Z,19.10
2022-10-29T15:44:30.032Z,19.00
2022-10-29T15:46:59.744Z,19.00
2022-10-29T15:49:31.484Z,18.90
2022-10-29T15:52:01.497Z,18.90
2022-10-29T15:54:30.732Z,18.90
2022-10-29T15:56:59.042Z,18.80
2022-10-29T15:59:27.436Z,18.80
2022-10-29T16:01:55.305Z,18.70
2022-10-29T16:04:23.098Z,18.70
2022-10-29T16:06:50.867Z,18.60
2022-10-29T16:09:21.372Z,18.60
2022-10-29T16:11:51.957Z,18.50
2022-10-29T16:14:19.664Z,18.50
2022-10-29T16:16:47.451Z,18.50
2022-10-29T16:19:15.129Z,18.40
2022-10-29T16:21:42.902Z,18.30
2022-10-29T16:24:14.498Z,18.30
2022-10-29T16:26:42.302Z,18.30
2022-10-29T16:29:11.499Z,18.20
2022-10-29T16:31:39.216Z,18.20
2022-10-29T16:34:13.357Z,18.10
2022-10-29T16:36:41.130Z,18.10
2022-10-29T16:39:09.022Z,18.10
2022-10-29T16:41:37.153Z,18.10
2022-10-29T16:44:05.197Z,18.00
2022-10-29T16:46:34.266Z,18.00
2022-10-29T16:49:01.976Z,18.00
2022-10-29T16:51:29.697Z,18.00
2022-10-29T16:53:57.520Z,18.00
2022-10-29T16:56:25.306Z,17.90
2022-10-29T16:58:56.714Z,17.90
2022-10-29T17:01:26.955Z,17.90
2022-10-29T17:03:56.076Z,17.90
2022-10-29T17:06:23.831Z,17.90
2022-10-29T17:08:51.532Z,17.80
2022-10-29T17:11:19.243Z,17.80
2022-10-29T17:13:46.939Z,17.80
2022-10-29T17:16:16.181Z,17.70
2022-10-29T17:18:43.867Z,17.70
2022-10-29T17:21:13.129Z,17.60
2022-10-29T17:23:40.806Z,17.60
2022-10-29T17:26:08.532Z,17.60
2022-10-29T17:28:38.471Z,17.50
2022-10-29T17:31:06.568Z,17.50
2022-10-29T17:33:34.289Z,17.40
2022-10-29T17:36:02.463Z,17.40
2022-10-29T17:38:31.840Z,17.30
2022-10-29T17:40:59.525Z,17.30
2022-10-29T17:43:27.275Z,17.30
2022-10-29T17:45:55.025Z,17.30
2022-10-29T17:48:25.050Z,17.20
2022-10-29T17:50:53.885Z,17.20
2022-10-29T17:53:21.774Z,17.20
2022-10-29T17:55:51.155Z,17.20
2022-10-29T17:58:19.336Z,17.10
2022-10-29T18:00:48.675Z,17.10
2022-10-29T18:03:16.488Z,17.10
2022-10-29T18:05:44.415Z,17.00
2022-10-29T18:08:12.166Z,17.00
2022-10-29T18:10:39.874Z,17.00
2022-10-29T18:13:08.968Z,16.90
2022-10-29T18:15:36.683Z,16.90
2022-10-29T18:18:04.516Z,16.90
2022-10-29T18:20:32.226Z,16.90
2022-10-29T18:23:00.373Z,16.90
2022-10-29T18:25:28.425Z,16.80
2022-10-29T18:27:56.707Z,16.80
2022-10-29T18:30:25.812Z,16.80
2022-10-29T18:32:53.696Z,16.80
2022-10-29T18:35:21.485Z,16.80
2022-10-29T18:37:49.229Z,16.70
2022-10-29T18:40:16.973Z,16.70
2022-10-29T18:42:44.695Z,16.70
2022-10-29T18:45:12.605Z,16.70
2022-10-29T18:47:41.654Z,16.70
2022-10-29T18:50:09.457Z,16.70
2022-10-29T18:52:37.141Z,16.70
2022-10-29T18:55:05.357Z,16.70
2022-10-29T18:57:33.176Z,16.60
2022-10-29T19:00:00.852Z,16.60
2022-10-29T19:02:28.734Z,16.60
2022-10-29T19:04:57.811Z,16.60
2022-10-29T19:07:25.620Z,16.60
2022-10-29T19:09:53.348Z,16.60
2022-10-29T19:12:21.074Z,16.60
2022-10-29T19:14:48.808Z,16.60
2022-10-29T19:17:16.495Z,16.60
2022-10-29T19:19:44.188Z,16.60
2022-10-29T19:22:13.243Z,16.60
2022-10-29T19:24:40.954Z,16.50
2022-10-29T19:27:08.682Z,16.50
2022-10-29T19:29:36.419Z,16.50
2022-10-29T19:32:04.254Z,16.50
2022-10-29T19:34:32.044Z,16.40
2022-10-29T19:36:59.788Z,16.40
2022-10-29T19:39:28.787Z,16.40
2022-10-29T19:41:56.512Z,16.40
2022-10-29T19:44:24.211Z,16.40
2022-10-29T19:46:52.015Z,16.40
2022-10-29T19:49:19.785Z,16.30
2022-10-29T19:51:48.185Z,16.30
2022-10-29T19:54:15.927Z,16.30
2022-10-29T19:56:44.985Z,16.30
2022-10-29T19:59:12.711Z,16.30
2022-10-29T20:01:41.588Z,16.30
2022-10-29T20:04:09.625Z,16.30
2022-10-29T20:06:37.302Z,16.30
2022-10-29T20:09:05.218Z,16.30
2022-10-29T20:11:32.956Z,16.20
2022-10-29T20:14:02.173Z,16.20
2022-10-29T20:16:29.919Z,16.20
2022-10-29T20:18:57.627Z,16.10
2022-10-29T20:21:25.449Z,16.10
2022-10-29T20:23:53.183Z,16.10
2022-10-29T20:26:20.898Z,16.10
2022-10-29T20:28:48.623Z,16.10
2022-10-29T20:31:30.469Z,16.00
2022-10-29T20:34:01.082Z,16.00
2022-10-29T20:36:31.112Z,16.00
2022-10-29T20:38:59.231Z,16.00
2022-10-29T20:41:27.308Z,16.00
2022-10-29T20:43:56.401Z,16.00
2022-10-29T20:46:25.501Z,16.00
2022-10-29T20:48:54.944Z,16.00
2022-10-29T20:51:23.682Z,16.00
2022-10-29T20:53:51.838Z,16.00
2022-10-29T20:56:20.283Z,16.00
2022-10-29T20:58:48.018Z,15.90
2022-10-29T21:01:17.534Z,15.90
2022-10-29T21:03:45.780Z,15.90
2022-10-29T21:06:17.474Z,15.80
2022-10-29T21:08:45.629Z,15.80
2022-10-29T21:11:14.480Z,15.70
2022-10-29T21:13:42.340Z,15.70
2022-10-29T21:16:15.013Z,15.70
2022-10-29T21:18:44.417Z,15.60
2022-10-29T21:21:13.754Z,15.60
2022-10-29T21:23:41.506Z,15.60
2022-10-29T21:26:12.363Z,15.50
2022-10-29T21:28:40.100Z,15.50
2022-10-29T21:31:07.928Z,15.50
2022-10-29T21:33:35.838Z,15.50
2022-10-29T21:36:03.753Z,15.50
2022-10-29T21:38:33.463Z,15.40
2022-10-29T21:41:01.972Z,15.40
2022-10-29T21:43:30.103Z,15.40
2022-10-29T21:45:58.102Z,15.40
2022-10-29T21:48:26.585Z,15.40
2022-10-29T21:51:02.039Z,15.40
2022-10-29T21:53:30.227Z,15.30
2022-10-29T21:56:00.120Z,15.30
2022-10-29T21:58:28.920Z,15.30
2022-10-29T22:01:03.957Z,15.30
2022-10-29T22:03:32.419Z,15.30
2022-10-29T22:06:05.134Z,15.20
2022-10-29T22:08:32.959Z,15.20
2022-10-29T22:11:02.101Z,15.20
2022-10-29T22:13:30.861Z,15.20
2022-10-29T22:15:58.955Z,15.10
2022-10-29T22:18:27.579Z,15.10
2022-10-29T22:21:04.632Z,15.10
2022-10-29T22:23:32.374Z,15.10
2022-10-29T22:26:00.107Z,15.10
2022-10-29T22:28:29.204Z,15.10
2022-10-29T22:31:01.111Z,15.10
2022-10-29T22:33:29.248Z,15.10
2022-10-29T22:35:57.009Z,15.10
2022-10-29T22:38:24.695Z,15.10
2022-10-29T22:40:52.397Z,15.10
2022-10-29T22:43:20.093Z,15.10
2022-10-29T22:45:49.205Z,15.00
2022-10-29T22:48:16.883Z,15.00
2022-10-29T22:50:44.784Z,15.00
2022-10-29T22:53:12.510Z,15.00
2022-10-29T22:55:40.237Z,15.10
2022-10-29T22:58:07.918Z,15.10
2022-10-29T23:00:35.644Z,15.10
2022-10-29T23:03:04.712Z,15.10
2022-10-29T23:05:32.433Z,15.10
2022-10-29T23:08:00.423Z,15.10
2022-10-29T23:10:28.531Z,15.10
2022-10-29T23:12:56.282Z,15.10
2022-10-29T23:15:24.013Z,15.10
2022-10-29T23:17:53.699Z,15.10
2022-10-29T23:20:22.779Z,15.10
2022-10-29T23:22:50.465Z,15.10
2022-10-29T23:25:18.210Z,15.10
2022-10-29T23:27:46.256Z,15.10
2022-10-29T23:30:14.460Z,15.10
2022-10-29T23:32:42.178Z,15.20
2022-10-29T23:35:10.081Z,15.20
2022-10-29T23:37:39.201Z,15.20
2022-10-29T23:40:08.161Z,15.20
2022-10-29T23:42:35.864Z,15.20
2022-10-29T23:45:07.777Z,15.20
2022-10-29T23:47:35.629Z,15.20
2022-10-29T23:50:03.397Z,15.10
2022-10-29T23:52:31.374Z,15.20
2022-10-29T23:55:00.420Z,15.20
2022-10-29T23:57:28.100Z,15.20
2022-10-29T23:59:55.821Z,15.20
